createdAt,value
2022-10-19T00:00:04.257Z,98.50
2022-10-19T00:02:11.557Z,98.30
2022-10-19T00:04:16.190Z,98.40
2022-10-19T00:06:26.795Z,98.30
2022-10-19T00:08:31.137Z,98.60
2022-10-19T00:10:35.274Z,98.40
2022-10-19T00:12:42.115Z,98.40
2022-10-19T00:14:46.272Z,98.30
2022-10-19T00:16:54.323Z,98.20
2022-10-19T00:19:00.689Z,98.00
2022-10-19T00:21:06.043Z,98.00
2022-10-19T00:23:10.349Z,98.50
2022-10-19T00:25:16.989Z,98.30
2022-10-19T00:27:21.115Z,98.30
2022-10-19T00:29:25.924Z,97.80
2022-10-19T00:31:30.065Z,97.90
2022-10-19T00:33:36.010Z,97.80
2022-10-19T00:35:45.050Z,97.70
2022-10-19T00:37:51.625Z,97.40
2022-10-19T00:40:02.527Z,97.10
2022-10-19T00:42:17.119Z,97.80
2022-10-19T00:44:24.500Z,97.40
2022-10-19T00:46:30.841Z,97.30
2022-10-19T00:48:37.021Z,97.60
2022-10-19T00:50:43.386Z,97.10
2022-10-19T00:52:47.961Z,96.30
2022-10-19T00:55:03.725Z,95.80
2022-10-19T00:57:12.281Z,95.60
2022-10-19T00:59:20.786Z,95.50
2022-10-19T01:01:37.238Z,95.60
2022-10-19T01:03:41.502Z,95.30
2022-10-19T01:05:45.979Z,95.30
2022-10-19T01:07:52.382Z,95.20
2022-10-19T01:10:00.078Z,95.10
2022-10-19T01:12:08.822Z,95.40
2022-10-19T01:14:34.560Z,95.30
2022-10-19T01:16:51.848Z,95.40
2022-10-19T01:19:07.945Z,95.30
2022-10-19T01:21:20.072Z,95.40
2022-10-19T01:23:36.388Z,95.40
2022-10-19T01:25:45.201Z,95.30
2022-10-19T01:28:01.711Z,95.40
2022-10-19T01:30:08.482Z,94.90
2022-10-19T01:32:13.613Z,94.50
2022-10-19T01:34:26.061Z,94.90
2022-10-19T01:36:42.952Z,94.00
2022-10-19T01:38:55.160Z,93.60
2022-10-19T01:41:01.901Z,93.00
2022-10-19T01:43:11.150Z,92.60
2022-10-19T01:45:19.032Z,92.60
2022-10-19T01:47:27.397Z,92.90
2022-10-19T01:49:38.223Z,92.30
2022-10-19T01:51:45.868Z,92.60
2022-10-19T01:53:51.313Z,91.60
2022-10-19T01:55:55.681Z,90.90
2022-10-19T01:58:02.052Z,91.00
2022-10-19T02:00:08.588Z,90.30
2022-10-19T02:02:28.306Z,90.80
2022-10-19T02:04:33.999Z,90.50
2022-10-19T02:06:40.153Z,88.90
2022-10-19T02:08:46.657Z,90.00
2022-10-19T02:10:55.129Z,90.20
2022-10-19T02:13:09.296Z,88.40
2022-10-19T02:15:23.515Z,88.90
2022-10-19T02:17:31.676Z,89.20
2022-10-19T02:19:37.774Z,89.60
2022-10-19T02:21:43.926Z,89.50
2022-10-19T02:23:54.412Z,87.10
2022-10-19T02:26:02.367Z,88.50
2022-10-19T02:30:43.407Z,87.20
2022-10-19T02:33:04.676Z,86.70
2022-10-19T02:35:10.444Z,87.10
2022-10-19T02:37:14.911Z,87.10
2022-10-19T02:39:19.582Z,87.00
2022-10-19T02:41:25.998Z,85.60
2022-10-19T02:43:31.834Z,86.30
2022-10-19T02:45:42.715Z,85.90
2022-10-19T02:47:49.369Z,86.20
2022-10-19T02:49:53.260Z,86.70
2022-10-19T02:52:01.305Z,87.30
2022-10-19T02:54:05.593Z,86.80
2022-10-19T02:56:10.285Z,86.90
2022-10-19T02:58:19.181Z,86.10
2022-10-19T03:00:23.268Z,86.20
2022-10-19T03:02:29.663Z,86.80
2022-10-19T03:04:38.821Z,85.90
2022-10-19T03:06:51.485Z,85.50
2022-10-19T03:08:57.419Z,85.80
2022-10-19T03:11:06.298Z,85.10
2022-10-19T03:13:17.791Z,84.60
2022-10-19T03:15:29.963Z,85.20
2022-10-19T03:17:36.894Z,84.50
2022-10-19T03:19:44.521Z,84.20
2022-10-19T03:21:49.347Z,85.10
2022-10-19T03:23:55.470Z,85.00
2022-10-19T03:26:01.735Z,84.20
2022-10-19T03:28:05.839Z,84.20
2022-10-19T03:30:12.979Z,84.80
2022-10-19T03:32:19.495Z,83.00
2022-10-19T03:34:25.041Z,84.30
2022-10-19T03:36:32.412Z,84.40
2022-10-19T03:38:38.620Z,83.70
2022-10-19T03:40:42.528Z,83.30
2022-10-19T03:42:49.564Z,83.50
2022-10-19T03:44:55.519Z,82.70
2022-10-19T03:47:00.359Z,82.40
2022-10-19T03:49:07.571Z,82.90
2022-10-19T03:51:15.744Z,83.00
2022-10-19T03:53:19.593Z,83.30
2022-10-19T03:55:26.725Z,84.20
2022-10-19T03:57:32.825Z,84.00
2022-10-19T03:59:37.559Z,84.40
2022-10-19T04:01:47.129Z,83.20
2022-10-19T04:04:11.137Z,83.30
2022-10-19T04:06:19.595Z,84.30
2022-10-19T04:08:27.848Z,83.90
2022-10-19T04:10:32.343Z,82.90
2022-10-19T04:12:37.275Z,82.00
2022-10-19T04:14:56.721Z,82.70
2022-10-19T04:17:10.269Z,81.60
2022-10-19T04:19:23.604Z,81.60
2022-10-19T04:21:45.814Z,80.90
2022-10-19T04:23:52.693Z,81.10
2022-10-19T04:26:03.563Z,81.10
2022-10-19T04:28:10.522Z,80.00
2022-10-19T04:30:27.240Z,81.10
2022-10-19T04:32:36.123Z,78.90
2022-10-19T04:34:44.934Z,80.30
2022-10-19T04:37:00.351Z,79.00
2022-10-19T04:39:24.087Z,78.50
2022-10-19T04:41:28.201Z,77.70
2022-10-19T04:43:35.451Z,79.10
2022-10-19T04:45:39.577Z,78.90
2022-10-19T04:47:46.118Z,78.10
2022-10-19T04:49:50.013Z,76.50
2022-10-19T04:51:54.065Z,75.30
2022-10-19T04:54:01.433Z,77.60
2022-10-19T04:56:08.013Z,76.80
2022-10-19T04:58:12.765Z,76.70
2022-10-19T05:00:19.313Z,76.10
2022-10-19T05:02:46.808Z,76.90
2022-10-19T05:04:56.432Z,76.60
2022-10-19T05:07:03.271Z,78.40
2022-10-19T05:09:08.607Z,75.10
2022-10-19T05:11:30.411Z,75.60
2022-10-19T05:13:40.577Z,75.60
2022-10-19T05:15:59.216Z,76.90
2022-10-19T05:18:03.445Z,77.20
2022-10-19T05:20:09.021Z,75.60
2022-10-19T05:22:13.386Z,74.80
2022-10-19T05:24:18.822Z,77.50
2022-10-19T05:26:42.639Z,76.60
2022-10-19T05:28:57.413Z,76.20
2022-10-19T05:31:08.781Z,77.10
2022-10-19T05:33:32.622Z,76.30
2022-10-19T05:35:45.007Z,75.60
2022-10-19T05:37:58.772Z,75.10
2022-10-19T05:40:15.988Z,76.10
2022-10-19T05:42:39.722Z,75.40
2022-10-19T05:45:03.736Z,76.80
2022-10-19T05:47:31.025Z,74.60
2022-10-19T05:49:53.234Z,76.30
2022-10-19T05:52:00.515Z,75.40
2022-10-19T05:54:04.995Z,76.40
2022-10-19T05:56:10.847Z,75.80
2022-10-19T05:58:15.966Z,75.80
2022-10-19T06:00:20.169Z,75.40
2022-10-19T06:02:24.626Z,75.70
2022-10-19T06:04:30.152Z,75.90
2022-10-19T06:06:34.569Z,74.30
2022-10-19T06:08:40.936Z,74.40
2022-10-19T06:10:45.283Z,74.30
2022-10-19T06:12:49.805Z,75.60
2022-10-19T06:14:53.882Z,75.10
2022-10-19T06:17:00.308Z,74.80
2022-10-19T06:19:04.434Z,74.60
2022-10-19T06:21:10.765Z,75.90
2022-10-19T06:23:15.180Z,75.40
2022-10-19T06:25:20.450Z,74.80
2022-10-19T06:27:27.581Z,74.90
2022-10-19T06:29:32.745Z,75.10
2022-10-19T06:31:37.384Z,74.60
2022-10-19T06:33:42.517Z,74.50
2022-10-19T06:35:46.896Z,73.70
2022-10-19T06:37:58.809Z,73.80
2022-10-19T06:40:07.270Z,74.40
2022-10-19T06:42:13.523Z,75.00
2022-10-19T06:44:17.517Z,74.60
2022-10-19T06:46:24.173Z,75.50
2022-10-19T06:48:28.075Z,74.40
2022-10-19T06:50:36.687Z,73.50
2022-10-19T06:53:00.632Z,74.00
2022-10-19T06:55:19.571Z,75.10
2022-10-19T06:57:27.944Z,75.30
2022-10-19T06:59:46.537Z,74.30
2022-10-19T07:01:53.103Z,73.90
2022-10-19T07:04:01.812Z,73.70
2022-10-19T07:06:11.278Z,73.20
2022-10-19T07:08:20.079Z,73.00
2022-10-19T07:10:27.323Z,74.40
2022-10-19T07:12:32.547Z,73.80
2022-10-19T07:14:40.537Z,72.90
2022-10-19T07:16:44.470Z,73.40
2022-10-19T07:18:48.988Z,73.40
2022-10-19T07:20:59.920Z,73.90
2022-10-19T07:23:04.204Z,73.80
2022-10-19T07:25:09.158Z,72.80
2022-10-19T07:27:13.459Z,72.70
2022-10-19T07:29:18.717Z,73.30
2022-10-19T07:31:23.531Z,72.60
2022-10-19T07:33:28.686Z,72.60
2022-10-19T07:35:32.765Z,73.50
2022-10-19T07:37:37.161Z,73.00
2022-10-19T07:39:41.146Z,72.80
2022-10-19T07:41:47.443Z,71.80
2022-10-19T07:43:51.516Z,73.70
2022-10-19T07:46:06.764Z,74.10
2022-10-19T07:48:10.671Z,72.40
2022-10-19T07:50:20.424Z,73.40
2022-10-19T07:52:26.613Z,73.10
2022-10-19T07:54:30.852Z,73.30
2022-10-19T07:56:37.184Z,71.50
2022-10-19T07:58:41.905Z,72.00
2022-10-19T08:00:46.012Z,72.90
2022-10-19T08:03:00.180Z,72.70
2022-10-19T08:05:16.419Z,72.50
2022-10-19T08:07:20.495Z,72.70
2022-10-19T08:09:51.634Z,72.70
2022-10-19T08:11:56.101Z,73.30
2022-10-19T08:14:04.192Z,73.10
2022-10-19T08:16:24.812Z,73.40
2022-10-19T08:18:34.060Z,74.00
2022-10-19T08:20:42.902Z,73.40
2022-10-19T08:22:56.367Z,73.40
2022-10-19T08:25:14.029Z,73.30
2022-10-19T08:27:18.324Z,73.00
2022-10-19T08:29:26.596Z,73.30
2022-10-19T08:31:49.618Z,73.00
2022-10-19T08:33:56.703Z,72.90
2022-10-19T08:36:04.330Z,73.00
2022-10-19T08:38:15.860Z,73.50
2022-10-19T08:40:26.865Z,73.60
2022-10-19T08:42:38.976Z,73.40
2022-10-19T08:44:55.329Z,73.80
2022-10-19T08:47:14.126Z,73.00
2022-10-19T08:49:21.749Z,74.10
2022-10-19T08:51:47.772Z,73.00
2022-10-19T08:53:57.462Z,73.30
2022-10-19T08:56:06.523Z,72.70
2022-10-19T08:58:34.736Z,73.00
2022-10-19T09:00:44.893Z,74.00
2022-10-19T09:03:11.319Z,74.30
2022-10-19T09:05:36.024Z,74.50
2022-10-19T09:07:55.741Z,73.80
2022-10-19T09:10:03.072Z,73.60
2022-10-19T09:12:17.098Z,73.70
2022-10-19T09:14:37.443Z,72.80
2022-10-19T09:16:43.802Z,72.40
2022-10-19T09:18:48.554Z,73.40
2022-10-19T09:20:54.112Z,73.90
2022-10-19T09:23:13.378Z,74.40
2022-10-19T09:25:26.160Z,74.70
2022-10-19T09:27:39.183Z,75.00
2022-10-19T09:29:47.474Z,74.20
2022-10-19T09:31:55.355Z,74.20
2022-10-19T09:34:21.159Z,74.90
2022-10-19T09:36:49.443Z,74.60
2022-10-19T09:38:57.883Z,74.20
2022-10-19T09:41:14.976Z,73.90
2022-10-19T09:43:29.513Z,74.20
2022-10-19T09:45:36.182Z,73.90
2022-10-19T09:48:08.771Z,75.20
2022-10-19T09:50:24.382Z,74.70
2022-10-19T09:52:41.980Z,75.40
2022-10-19T09:55:25.770Z,75.60
2022-10-19T09:57:33.161Z,75.10
2022-10-19T09:59:56.755Z,75.80
2022-10-19T10:02:16.027Z,76.00
2022-10-19T10:04:27.590Z,76.30
2022-10-19T10:06:39.835Z,76.40
2022-10-19T10:08:48.955Z,76.80
2022-10-19T10:11:05.848Z,76.80
2022-10-19T10:13:31.962Z,77.10
2022-10-19T10:15:44.144Z,78.50
2022-10-19T10:18:08.004Z,79.30
2022-10-19T10:20:26.994Z,79.70
2022-10-19T10:22:33.635Z,80.30
2022-10-19T10:24:37.816Z,80.40
2022-10-19T10:26:47.479Z,80.70
2022-10-19T10:28:53.872Z,81.00
2022-10-19T10:31:07.000Z,81.20
2022-10-19T10:33:27.332Z,81.40
2022-10-19T10:35:54.453Z,81.60
2022-10-19T10:38:11.236Z,81.90
2022-10-19T10:40:26.647Z,82.20
2022-10-19T10:42:42.992Z,82.60
2022-10-19T10:44:51.209Z,83.20
2022-10-19T10:47:01.894Z,83.80
2022-10-19T10:49:21.974Z,83.70
2022-10-19T10:51:50.578Z,83.90
2022-10-19T10:54:17.111Z,84.20
2022-10-19T10:56:28.904Z,84.70
2022-10-19T10:58:54.927Z,84.60
2022-10-19T11:01:06.696Z,85.00
2022-10-19T11:03:30.100Z,85.30
2022-10-19T11:05:43.351Z,85.50
2022-10-19T11:07:51.926Z,85.80
2022-10-19T11:10:10.925Z,86.20
2022-10-19T11:12:35.178Z,86.50
2022-10-19T11:14:48.326Z,87.30
2022-10-19T11:16:54.443Z,87.50
2022-10-19T11:21:28.227Z,87.50
2022-10-19T11:23:47.785Z,87.80
2022-10-19T11:26:08.010Z,88.20
2022-10-19T11:28:26.863Z,88.60
2022-10-19T11:30:35.011Z,88.30
2022-10-19T11:32:58.343Z,88.70
2022-10-19T11:35:06.187Z,88.80
2022-10-19T11:37:15.028Z,89.00
2022-10-19T11:39:34.703Z,89.30
2022-10-19T11:41:40.582Z,89.70
2022-10-19T11:44:11.575Z,89.60
2022-10-19T11:46:38.644Z,89.80
2022-10-19T11:49:03.321Z,89.90
2022-10-19T11:51:21.696Z,90.20
2022-10-19T11:53:39.479Z,90.30
2022-10-19T11:55:56.461Z,90.50
2022-10-19T11:58:23.606Z,90.60
2022-10-19T12:00:39.275Z,90.60
2022-10-19T12:03:04.012Z,90.70
2022-10-19T12:05:21.086Z,90.90
2022-10-19T12:07:30.879Z,91.40
2022-10-19T12:09:49.889Z,91.30
2022-10-19T12:12:04.304Z,91.50
2022-10-19T12:14:19.665Z,91.70
2022-10-19T12:16:48.197Z,91.70
2022-10-19T12:18:59.536Z,92.00
2022-10-19T12:21:13.281Z,92.00
2022-10-19T12:23:38.761Z,92.10
2022-10-19T12:26:05.713Z,92.20
2022-10-19T12:28:31.179Z,92.40
2022-10-19T12:30:38.755Z,92.50
2022-10-19T12:33:05.139Z,92.70
2022-10-19T12:37:41.048Z,92.90
2022-10-19T12:39:50.774Z,92.80
2022-10-19T12:42:19.316Z,92.80
2022-10-19T12:44:30.200Z,93.00
2022-10-19T12:46:53.021Z,93.10
2022-10-19T12:49:17.877Z,93.00
2022-10-19T12:51:45.700Z,93.10
2022-10-19T12:53:54.242Z,93.30
2022-10-19T12:56:09.938Z,93.20
2022-10-19T12:58:26.127Z,93.10
2022-10-19T13:00:43.245Z,93.00
2022-10-19T13:03:19.568Z,92.90
2022-10-19T13:05:46.097Z,93.00
2022-10-19T13:08:12.360Z,93.00
2022-10-19T13:10:27.290Z,93.20
2022-10-19T13:12:44.902Z,93.10
2022-10-19T13:14:55.582Z,93.30
2022-10-19T13:17:12.216Z,93.30
2022-10-19T13:19:30.815Z,93.20
2022-10-19T13:21:55.594Z,93.20
2022-10-19T13:24:18.159Z,93.40
2022-10-19T13:26:34.750Z,93.40
2022-10-19T13:28:52.930Z,93.50
2022-10-19T13:31:25.886Z,93.60
2022-10-19T13:33:50.755Z,93.60
2022-10-19T13:36:09.192Z,93.60
2022-10-19T13:38:40.524Z,93.70
2022-10-19T13:41:09.487Z,93.80
2022-10-19T13:43:18.117Z,93.80
2022-10-19T13:45:24.018Z,93.90
2022-10-19T13:47:35.725Z,93.90
2022-10-19T13:49:42.537Z,93.90
2022-10-19T13:51:46.396Z,93.70
2022-10-19T13:53:57.138Z,93.60
2022-10-19T13:56:13.282Z,93.60
2022-10-19T13:58:29.313Z,93.30
2022-10-19T14:01:06.862Z,92.90
2022-10-19T14:03:30.274Z,92.50
2022-10-19T14:05:51.497Z,92.10
2022-10-19T14:08:34.246Z,91.60
2022-10-19T14:11:01.603Z,90.70
2022-10-19T14:13:13.277Z,90.70
2022-10-19T14:15:31.235Z,90.30
2022-10-19T14:17:55.980Z,90.10
2022-10-19T14:20:29.240Z,89.70
2022-10-19T14:22:42.908Z,89.60
2022-10-19T14:25:18.986Z,89.30
2022-10-19T14:27:42.654Z,89.30
2022-10-19T14:29:52.369Z,89.60
2022-10-19T14:32:09.246Z,89.20
2022-10-19T14:34:23.541Z,89.30
2022-10-19T14:36:32.734Z,90.20
2022-10-19T14:38:38.024Z,89.60
2022-10-19T14:40:43.004Z,89.90
2022-10-19T14:42:48.872Z,89.50
2022-10-19T14:45:06.832Z,89.30
2022-10-19T14:47:31.421Z,89.80
2022-10-19T14:49:55.426Z,89.90
2022-10-19T14:52:12.720Z,89.90
2022-10-19T14:54:33.473Z,90.00
2022-10-19T14:56:51.732Z,90.20
2022-10-19T14:59:13.028Z,90.30
2022-10-19T15:01:25.301Z,90.30
2022-10-19T15:03:42.828Z,90.30
2022-10-19T15:05:51.877Z,90.40
2022-10-19T15:07:59.528Z,90.40
2022-10-19T15:10:22.514Z,90.40
2022-10-19T15:12:48.433Z,90.40
2022-10-19T15:14:52.624Z,90.50
2022-10-19T15:17:00.398Z,90.50
2022-10-19T15:19:09.657Z,90.40
2022-10-19T15:21:19.004Z,90.50
2022-10-19T15:23:32.026Z,90.60
2022-10-19T15:25:38.221Z,90.70
2022-10-19T15:27:48.597Z,90.70
2022-10-19T15:29:59.211Z,90.90
2022-10-19T15:32:19.997Z,90.90
2022-10-19T15:34:30.930Z,91.00
2022-10-19T15:36:40.754Z,91.30
2022-10-19T15:39:25.388Z,91.50
2022-10-19T15:41:39.217Z,91.70
2022-10-19T15:43:50.451Z,91.80
2022-10-19T15:46:06.812Z,92.00
2022-10-19T15:48:22.990Z,92.10
2022-10-19T15:50:34.083Z,92.20
2022-10-19T15:52:40.165Z,92.20
2022-10-19T15:54:44.440Z,92.30
2022-10-19T15:56:50.919Z,92.40
2022-10-19T15:58:57.326Z,92.50
2022-10-19T16:01:01.425Z,92.50
2022-10-19T16:03:06.857Z,92.40
2022-10-19T16:05:10.896Z,92.40
2022-10-19T16:07:20.896Z,92.30
2022-10-19T16:09:25.364Z,92.30
2022-10-19T16:11:31.259Z,92.30
2022-10-19T16:13:35.177Z,92.20
2022-10-19T16:15:43.562Z,92.20
2022-10-19T16:17:57.088Z,92.40
2022-10-19T16:20:10.547Z,92.50
2022-10-19T16:22:34.723Z,92.50
2022-10-19T16:24:43.852Z,92.40
2022-10-19T16:26:54.828Z,92.50
2022-10-19T16:29:06.291Z,92.40
2022-10-19T16:31:13.590Z,92.40
2022-10-19T16:33:34.419Z,92.60
2022-10-19T16:35:53.353Z,92.60
2022-10-19T16:38:18.985Z,92.70
2022-10-19T16:40:39.518Z,92.60
2022-10-19T16:42:55.768Z,92.80
2022-10-19T16:45:21.448Z,92.50
2022-10-19T16:47:31.876Z,92.30
2022-10-19T16:49:44.340Z,92.50
2022-10-19T16:52:07.224Z,92.70
2022-10-19T16:54:11.736Z,92.60
2022-10-19T16:56:20.132Z,92.60
2022-10-19T16:58:24.001Z,92.80
2022-10-19T17:00:27.986Z,92.80
2022-10-19T17:02:43.078Z,92.60
2022-10-19T17:04:52.007Z,92.70
2022-10-19T17:06:56.012Z,92.70
2022-10-19T17:09:36.656Z,92.80
2022-10-19T17:11:25.363Z,92.90
2022-10-19T17:13:29.656Z,92.90
2022-10-19T17:15:48.883Z,93.00
2022-10-19T17:17:53.288Z,93.10
2022-10-19T17:20:01.627Z,93.30
2022-10-19T17:22:15.110Z,93.30
2022-10-19T17:24:22.245Z,93.40
2022-10-19T17:26:27.191Z,93.50
2022-10-19T17:28:33.357Z,93.60
2022-10-19T17:30:41.623Z,93.80
2022-10-19T17:32:45.719Z,93.90
2022-10-19T17:34:53.689Z,94.00
2022-10-19T17:36:59.553Z,94.10
2022-10-19T17:39:04.773Z,94.20
2022-10-19T17:41:13.157Z,94.20
2022-10-19T17:43:19.178Z,94.20
2022-10-19T17:45:23.083Z,94.30
2022-10-19T17:47:29.358Z,94.20
2022-10-19T17:49:38.615Z,94.00
2022-10-19T17:51:42.766Z,94.00
2022-10-19T17:53:51.232Z,94.00
2022-10-19T17:55:57.371Z,94.10
2022-10-19T17:58:02.860Z,94.10
2022-10-19T18:00:10.283Z,94.20
2022-10-19T18:02:25.139Z,94.10
2022-10-19T18:04:29.609Z,94.10
2022-10-19T18:06:36.962Z,94.00
2022-10-19T18:08:44.032Z,94.00
2022-10-19T18:10:48.273Z,93.90
2022-10-19T18:12:55.796Z,94.10
2022-10-19T18:15:01.880Z,94.00
2022-10-19T18:17:07.224Z,94.10
2022-10-19T18:19:17.064Z,94.10
2022-10-19T18:21:26.339Z,94.00
2022-10-19T18:23:30.415Z,93.90
2022-10-19T18:25:53.436Z,94.00
2022-10-19T18:28:02.567Z,94.00
2022-10-19T18:30:26.496Z,93.90
2022-10-19T18:32:40.777Z,94.00
2022-10-19T18:34:48.638Z,94.10
2022-10-19T18:36:56.544Z,94.20
2022-10-19T18:39:07.771Z,94.30
2022-10-19T18:41:18.702Z,94.40
2022-10-19T18:43:27.714Z,94.40
2022-10-19T18:45:54.707Z,94.50
2022-10-19T18:48:02.120Z,94.30
2022-10-19T18:50:06.899Z,94.30
2022-10-19T18:52:14.564Z,94.60
2022-10-19T18:54:21.102Z,94.50
2022-10-19T18:56:37.409Z,94.60
2022-10-19T18:58:50.791Z,94.60
2022-10-19T19:01:07.152Z,94.40
2022-10-19T19:03:11.775Z,94.50
2022-10-19T19:05:37.611Z,94.60
2022-10-19T19:07:44.252Z,94.50
2022-10-19T19:09:51.060Z,94.50
2022-10-19T19:12:01.519Z,94.50
2022-10-19T19:14:13.593Z,94.80
2022-10-19T19:16:21.853Z,94.80
2022-10-19T19:18:32.363Z,94.80
2022-10-19T19:20:44.048Z,94.80
2022-10-19T19:23:06.642Z,94.90
2022-10-19T19:25:25.041Z,95.10
2022-10-19T19:27:51.184Z,95.20
2022-10-19T19:29:55.865Z,95.30
2022-10-19T19:32:07.688Z,95.50
2022-10-19T19:34:25.753Z,95.50
2022-10-19T19:36:31.282Z,95.50
2022-10-19T19:38:41.716Z,95.50
2022-10-19T19:40:50.256Z,95.50
2022-10-19T19:43:00.294Z,95.50
2022-10-19T19:45:07.647Z,95.60
2022-10-19T19:47:15.600Z,95.80
2022-10-19T19:49:26.049Z,96.10
2022-10-19T19:51:33.177Z,96.00
2022-10-19T19:53:40.483Z,95.90
2022-10-19T19:55:53.495Z,96.00
2022-10-19T19:58:02.528Z,96.10
2022-10-19T20:00:11.297Z,96.10
2022-10-19T20:02:27.995Z,96.20
2022-10-19T20:04:36.897Z,96.20
2022-10-19T20:06:55.078Z,96.50
2022-10-19T20:08:59.528Z,96.30
2022-10-19T20:11:24.037Z,96.20
2022-10-19T20:13:44.970Z,96.40
2022-10-19T20:15:59.976Z,96.50
2022-10-19T20:18:09.616Z,96.60
2022-10-19T20:20:19.069Z,96.90
2022-10-19T20:22:33.473Z,96.80
2022-10-19T20:24:42.222Z,97.00
2022-10-19T20:26:48.815Z,97.20
2022-10-19T20:28:53.068Z,97.30
2022-10-19T20:31:07.664Z,97.30
2022-10-19T20:33:13.684Z,97.30
2022-10-19T20:35:18.109Z,97.00
2022-10-19T20:37:28.261Z,96.70
2022-10-19T20:39:32.756Z,96.60
2022-10-19T20:41:36.874Z,96.50
2022-10-19T20:43:43.618Z,96.50
2022-10-19T20:45:53.148Z,96.50
2022-10-19T20:47:57.458Z,96.50
2022-10-19T20:52:15.979Z,96.60
2022-10-19T20:54:22.225Z,96.70
2022-10-19T20:56:29.483Z,96.70
2022-10-19T20:58:35.478Z,96.60
2022-10-19T21:00:43.045Z,96.70
2022-10-19T21:02:57.958Z,96.70
2022-10-19T21:05:09.840Z,96.80
2022-10-19T21:07:33.748Z,96.80
2022-10-19T21:09:42.399Z,96.80
2022-10-19T21:11:48.709Z,97.20
2022-10-19T21:13:58.452Z,97.00
2022-10-19T21:16:16.360Z,97.10
2022-10-19T21:18:40.819Z,97.10
2022-10-19T21:20:46.190Z,97.20
2022-10-19T21:22:52.613Z,97.10
2022-10-19T21:24:56.758Z,97.20
2022-10-19T21:27:02.803Z,97.30
2022-10-19T21:29:12.487Z,97.50
2022-10-19T21:31:19.383Z,97.30
2022-10-19T21:33:26.177Z,97.20
2022-10-19T21:35:33.941Z,97.30
2022-10-19T21:37:42.775Z,97.40
2022-10-19T21:40:05.021Z,97.50
2022-10-19T21:42:12.399Z,97.60
2022-10-19T21:44:19.316Z,97.70
2022-10-19T21:46:23.729Z,97.70
2022-10-19T21:48:30.236Z,97.80
2022-10-19T21:50:37.359Z,97.90
2022-10-19T21:52:45.264Z,98.00
2022-10-19T21:54:56.715Z,97.90
2022-10-19T21:57:06.000Z,98.00
2022-10-19T21:59:13.213Z,97.90
2022-10-19T22:01:18.902Z,97.80
2022-10-19T22:03:25.094Z,97.80
2022-10-19T22:05:29.734Z,97.90
2022-10-19T22:07:36.166Z,97.80
2022-10-19T22:09:42.455Z,97.70
2022-10-19T22:12:00.635Z,97.80
2022-10-19T22:14:10.987Z,97.80
2022-10-19T22:16:18.008Z,97.80
2022-10-19T22:18:23.983Z,97.90
2022-10-19T22:20:49.175Z,98.00
2022-10-19T22:23:00.676Z,98.10
2022-10-19T22:25:10.312Z,98.30
2022-10-19T22:27:37.089Z,98.30
2022-10-19T22:29:44.134Z,98.30
2022-10-19T22:31:49.821Z,98.40
2022-10-19T22:33:54.838Z,98.40
2022-10-19T22:36:01.131Z,98.40
2022-10-19T22:38:05.773Z,98.50
2022-10-19T22:40:12.670Z,98.60
2022-10-19T22:42:18.541Z,98.60
2022-10-19T22:44:22.946Z,98.10
2022-10-19T22:46:29.021Z,98.10
2022-10-19T22:48:35.094Z,98.10
2022-10-19T22:50:38.949Z,97.90
2022-10-19T22:52:44.799Z,97.90
2022-10-19T22:54:52.194Z,97.70
2022-10-19T22:56:56.247Z,97.80
2022-10-19T22:59:01.825Z,97.80
2022-10-19T23:01:07.490Z,97.50
2022-10-19T23:03:11.498Z,96.70
2022-10-19T23:05:15.728Z,96.90
2022-10-19T23:07:22.148Z,96.80
2022-10-19T23:09:31.125Z,96.40
2022-10-19T23:11:53.805Z,96.50
2022-10-19T23:14:09.555Z,96.50
2022-10-19T23:16:26.028Z,96.50
2022-10-19T23:18:36.573Z,96.30
2022-10-19T23:20:45.626Z,95.70
2022-10-19T23:22:56.234Z,95.80
2022-10-19T23:25:05.090Z,96.10
2022-10-19T23:27:17.775Z,96.00
2022-10-19T23:29:23.602Z,96.20
2022-10-19T23:31:38.938Z,96.20
2022-10-19T23:33:44.665Z,96.20
2022-10-19T23:35:53.228Z,96.00
2022-10-19T23:38:03.082Z,95.90
2022-10-19T23:40:09.623Z,95.70
2022-10-19T23:42:17.812Z,95.70
2022-10-19T23:44:30.573Z,95.80
2022-10-19T23:46:47.814Z,95.60
2022-10-19T23:49:04.905Z,95.60
2022-10-19T23:51:12.546Z,95.90
2022-10-19T23:53:20.165Z,95.70
2022-10-19T23:55:28.992Z,95.80
2022-10-19T23:57:48.331Z,95.90
2022-10-19T23:59:57.917Z,96.00
